createdAt,value
2019-03-03T00:00:21.760Z,99330.16
2019-03-03T00:02:50.169Z,99335.34
2019-03-03T00:05:18.535Z,99334.41
2019-03-03T00:07:46.932Z,99342.59
2019-03-03T00:10:15.463Z,99338.58
2019-03-03T00:12:43.865Z,99330.73
2019-03-03T00:15:12.883Z,99328.95
2019-03-03T00:17:41.293Z,99315.83
2019-03-03T00:20:13.909Z,99314.05
2019-03-03T00:22:42.365Z,99315.83
2019-03-03T00:25:12.530Z,99309.36
2019-03-03T00:27:40.934Z,99314.63
2019-03-03T00:30:20.450Z,99309.36
2019-03-03T00:32:48.839Z,99313.84
2019-03-03T00:35:17.356Z,99309.91
2019-03-03T00:37:47.402Z,99317.71
2019-03-03T00:40:26.276Z,99309.80
2019-03-03T00:43:05.008Z,99308.47
2019-03-03T00:45:35.038Z,99302.78
2019-03-03T00:48:20.891Z,99292.76
2019-03-03T00:50:57.212Z,99301.92
2019-03-03T00:53:43.551Z,99301.50
2019-03-03T00:56:22.310Z,99298.48
2019-03-03T00:58:55.097Z,99298.13
2019-03-03T01:01:30.621Z,99305.11
2019-03-03T01:04:00.668Z,99295.61
2019-03-03T01:06:30.702Z,99286.93
2019-03-03T01:09:09.775Z,99280.40
2019-03-03T01:11:56.208Z,99280.47
2019-03-03T01:14:32.219Z,99275.30
2019-03-03T01:17:20.267Z,99266.63
2019-03-03T01:19:50.316Z,99264.07
2019-03-03T01:22:20.343Z,99266.31
2019-03-03T01:24:50.366Z,99267.26
2019-03-03T01:27:18.763Z,99266.45
2019-03-03T01:29:47.154Z,99268.72
2019-03-03T01:32:15.569Z,99260.50
2019-03-03T01:34:44.297Z,99255.69
2019-03-03T01:37:12.762Z,99258.88
2019-03-03T01:39:41.142Z,99257.66
2019-03-03T01:42:09.541Z,99248.11
2019-03-03T01:44:37.940Z,99240.33
2019-03-03T01:47:06.398Z,99232.57
2019-03-03T01:49:34.776Z,99235.70
2019-03-03T01:52:03.189Z,99224.84
2019-03-03T01:54:31.568Z,99217.50
2019-03-03T01:56:59.984Z,99211.41
2019-03-03T01:59:28.369Z,99212.33
2019-03-03T02:01:56.824Z,99216.34
2019-03-03T02:04:25.213Z,99221.65
2019-03-03T02:06:53.745Z,99213.80
2019-03-03T02:09:22.174Z,99222.17
2019-03-03T02:11:50.571Z,99216.06
2019-03-03T02:14:19.033Z,99216.52
2019-03-03T02:16:47.420Z,99225.31
2019-03-03T02:19:15.813Z,99230.13
2019-03-03T02:21:44.216Z,99230.59
2019-03-03T02:24:12.598Z,99221.84
2019-03-03T02:26:41.068Z,99214.86
2019-03-03T02:29:09.463Z,99213.98
2019-03-03T02:31:37.856Z,99214.86
2019-03-03T02:34:06.613Z,99213.16
2019-03-03T02:36:35.286Z,99221.92
2019-03-03T02:39:05.264Z,99227.22
2019-03-03T02:41:33.661Z,99226.77
2019-03-03T02:44:02.057Z,99234.66
2019-03-03T02:46:31.604Z,99223.70
2019-03-03T02:49:00.003Z,99216.71
2019-03-03T02:51:31.064Z,99212.31
2019-03-03T02:53:59.463Z,99221.52
2019-03-03T02:56:27.868Z,99215.83
2019-03-03T02:58:56.268Z,99214.11
2019-03-03T03:01:26.300Z,99208.86
2019-03-03T03:03:54.695Z,99201.82
2019-03-03T03:06:25.049Z,99198.30
2019-03-03T03:09:13.169Z,99199.19
2019-03-03T03:11:43.223Z,99198.73
2019-03-03T03:14:31.276Z,99204.86
2019-03-03T03:17:01.328Z,99198.73
2019-03-03T03:19:34.475Z,99197.88
2019-03-03T03:22:10.066Z,99197.41
2019-03-03T03:24:45.914Z,99192.14
2019-03-03T03:27:25.123Z,99192.14
2019-03-03T03:30:11.232Z,99185.15
2019-03-03T03:32:59.119Z,99178.58
2019-03-03T03:35:35.059Z,99184.73
2019-03-03T03:38:20.423Z,99190.83
2019-03-03T03:40:50.458Z,99186.91
2019-03-03T03:43:20.490Z,99185.13
2019-03-03T03:45:50.525Z,99186.03
2019-03-03T03:48:26.605Z,99180.36
2019-03-03T03:50:56.977Z,99184.31
2019-03-03T03:53:32.799Z,99177.33
2019-03-03T03:56:03.459Z,99162.87
2019-03-03T03:58:36.422Z,99155.45
2019-03-03T04:01:06.830Z,99159.83
2019-03-03T04:03:36.862Z,99160.70
2019-03-03T04:06:06.962Z,99157.57
2019-03-03T04:08:45.950Z,99157.14
2019-03-03T04:11:21.399Z,99143.11
2019-03-03T04:14:06.526Z,99145.31
2019-03-03T04:16:42.614Z,99139.59
2019-03-03T04:19:15.436Z,99144.41
2019-03-03T04:21:48.301Z,99145.70
2019-03-03T04:24:21.029Z,99141.77
2019-03-03T04:26:51.022Z,99140.88
2019-03-03T04:29:36.045Z,99129.05
2019-03-03T04:32:06.078Z,99135.61
2019-03-03T04:34:52.589Z,99128.15
2019-03-03T04:37:28.543Z,99132.96
2019-03-03T04:40:07.760Z,99126.38
2019-03-03T04:42:40.602Z,99128.14
2019-03-03T04:45:17.441Z,99122.88
2019-03-03T04:47:53.414Z,99109.33
2019-03-03T04:50:29.734Z,99121.56
2019-03-03T04:53:02.601Z,99120.66
2019-03-03T04:55:32.664Z,99130.73
2019-03-03T04:58:18.603Z,99117.17
2019-03-03T05:00:49.074Z,99118.03
2019-03-03T05:03:19.106Z,99114.56
2019-03-03T05:05:55.727Z,99112.34
2019-03-03T05:08:28.537Z,99105.37
2019-03-03T05:11:01.725Z,99106.21
2019-03-03T05:13:31.757Z,99097.48
2019-03-03T05:16:17.963Z,99091.33
2019-03-03T05:18:56.901Z,99086.97
2019-03-03T05:21:25.262Z,99078.19
2019-03-03T05:23:53.664Z,99073.80
2019-03-03T05:26:22.050Z,99076.00
2019-03-03T05:28:50.449Z,99075.56
2019-03-03T05:31:18.841Z,99079.04
2019-03-03T05:33:47.256Z,99079.92
2019-03-03T05:36:15.646Z,99081.67
2019-03-03T05:38:44.036Z,99090.43
2019-03-03T05:41:12.507Z,99092.62
2019-03-03T05:43:40.899Z,99086.08
2019-03-03T05:46:09.299Z,99087.38
2019-03-03T05:48:37.686Z,99084.77
2019-03-03T05:51:06.071Z,99083.47
2019-03-03T05:53:34.475Z,99084.36
2019-03-03T05:56:02.948Z,99080.84
2019-03-03T05:58:31.356Z,99081.72
2019-03-03T06:01:00.084Z,99082.56
2019-03-03T06:03:28.476Z,99088.69
2019-03-03T06:05:56.879Z,99089.59
2019-03-03T06:08:25.270Z,99088.70
2019-03-03T06:10:53.684Z,99090.03
2019-03-03T06:13:22.383Z,99083.03
2019-03-03T06:15:50.781Z,99082.59
2019-03-03T06:18:19.184Z,99084.78
2019-03-03T06:20:47.574Z,99083.48
2019-03-03T06:23:15.983Z,99083.04
2019-03-03T06:25:44.377Z,99074.73
2019-03-03T06:28:13.058Z,99076.50
2019-03-03T06:30:41.464Z,99078.23
2019-03-03T06:33:09.848Z,99085.69
2019-03-03T06:35:38.250Z,99082.20
2019-03-03T06:38:06.654Z,99087.91
2019-03-03T06:40:35.049Z,99087.02
2019-03-03T06:43:03.469Z,99084.39
2019-03-03T06:45:31.853Z,99091.42
2019-03-03T06:48:00.278Z,99089.25
2019-03-03T06:50:28.668Z,99091.05
2019-03-03T06:52:57.067Z,99085.76
2019-03-03T06:55:25.465Z,99081.80
2019-03-03T06:57:53.851Z,99080.97
2019-03-03T07:00:22.322Z,99087.55
2019-03-03T07:02:50.716Z,99084.48
2019-03-03T07:05:19.099Z,99088.85
2019-03-03T07:07:47.488Z,99091.48
2019-03-03T07:10:15.867Z,99089.73
2019-03-03T07:12:44.347Z,99093.66
2019-03-03T07:15:15.132Z,99087.09
2019-03-03T07:17:43.525Z,99086.22
2019-03-03T07:20:15.536Z,99088.00
2019-03-03T07:22:43.942Z,99086.23
2019-03-03T07:25:13.895Z,99080.11
2019-03-03T07:27:42.459Z,99089.77
2019-03-03T07:30:16.969Z,99089.33
2019-03-03T07:33:05.109Z,99088.44
2019-03-03T07:35:33.502Z,99091.08
2019-03-03T07:38:01.906Z,99094.14
2019-03-03T07:40:30.293Z,99098.09
2019-03-03T07:42:58.683Z,99103.36
2019-03-03T07:45:27.084Z,99098.52
2019-03-03T07:47:55.776Z,99095.89
2019-03-03T07:50:24.195Z,99095.05
2019-03-03T07:52:52.594Z,99098.53
2019-03-03T07:55:20.981Z,99100.30
2019-03-03T07:57:49.375Z,99102.05
2019-03-03T08:00:18.093Z,99098.53
2019-03-03T08:02:46.537Z,99098.96
2019-03-03T08:05:14.930Z,99099.42
2019-03-03T08:07:43.319Z,99092.38
2019-03-03T08:10:13.227Z,99100.72
2019-03-03T08:12:41.624Z,99105.55
2019-03-03T08:15:16.071Z,99102.03
2019-03-03T08:17:44.466Z,99098.53
2019-03-03T08:20:14.195Z,99095.02
2019-03-03T08:22:42.589Z,99095.48
2019-03-03T08:25:12.177Z,99099.42
2019-03-03T08:27:40.850Z,99095.04
2019-03-03T08:30:14.250Z,99099.40
2019-03-03T08:32:42.647Z,99099.40
2019-03-03T08:35:16.142Z,99096.80
2019-03-03T08:37:44.531Z,99088.88
2019-03-03T08:40:14.596Z,99091.09
2019-03-03T08:42:59.342Z,99084.49
2019-03-03T08:45:45.588Z,99084.49
2019-03-03T08:48:15.622Z,99088.02
2019-03-03T08:50:51.883Z,99094.13
2019-03-03T08:53:21.917Z,99091.08
2019-03-03T08:55:55.192Z,99088.88
2019-03-03T08:58:34.034Z,99094.14
2019-03-03T09:01:04.066Z,99084.52
2019-03-03T09:03:36.836Z,99093.27
2019-03-03T09:06:06.877Z,99093.27
2019-03-03T09:08:52.195Z,99083.62
2019-03-03T09:11:31.126Z,99088.01
2019-03-03T09:14:04.141Z,99092.38
2019-03-03T09:16:34.176Z,99085.80
2019-03-03T09:19:04.206Z,99091.09
2019-03-03T09:21:34.518Z,99092.38
2019-03-03T09:24:07.423Z,99088.87
2019-03-03T09:26:40.368Z,99077.91
2019-03-03T09:29:13.654Z,99086.70
2019-03-03T09:31:46.682Z,99085.39
2019-03-03T09:34:16.718Z,99084.93
2019-03-03T09:37:01.823Z,99080.98
2019-03-03T09:39:31.858Z,99080.98
2019-03-03T09:42:13.888Z,99083.16
2019-03-03T09:44:43.939Z,99078.33
2019-03-03T09:47:31.844Z,99068.26
2019-03-03T09:50:07.851Z,99072.63
2019-03-03T09:52:40.312Z,99071.31
2019-03-03T09:55:10.414Z,99072.63
2019-03-03T09:57:43.231Z,99073.06
2019-03-03T10:00:14.304Z,99078.33
2019-03-03T10:02:44.341Z,99073.92
2019-03-03T10:05:18.048Z,99078.33
2019-03-03T10:07:51.071Z,99082.70
2019-03-03T10:10:21.119Z,99073.06
2019-03-03T10:12:52.224Z,99074.38
2019-03-03T10:15:28.214Z,99071.29
2019-03-03T10:18:16.326Z,99071.29
2019-03-03T10:20:58.651Z,99058.59
2019-03-03T10:23:43.611Z,99061.22
2019-03-03T10:26:13.718Z,99061.64
2019-03-03T10:28:58.667Z,99063.42
2019-03-03T10:31:31.417Z,99063.42
2019-03-03T10:34:16.252Z,99058.16
2019-03-03T10:36:58.493Z,99052.03
2019-03-03T10:39:28.527Z,99053.34
2019-03-03T10:42:13.542Z,99054.20
2019-03-03T10:44:46.398Z,99042.79
2019-03-03T10:47:19.458Z,99042.82
2019-03-03T10:49:49.537Z,99033.14
2019-03-03T10:52:19.839Z,99036.67
2019-03-03T10:54:55.915Z,99032.72
2019-03-03T10:57:31.680Z,99023.94
2019-03-03T11:00:04.690Z,99013.84
2019-03-03T11:02:37.563Z,99028.31
2019-03-03T11:05:16.778Z,99019.95
2019-03-03T11:07:46.902Z,99009.41
2019-03-03T11:10:29.233Z,98994.93
2019-03-03T11:12:59.347Z,98990.55
2019-03-03T11:15:44.453Z,98980.86
2019-03-03T11:18:14.586Z,98981.77
2019-03-03T11:21:01.016Z,98983.08
2019-03-03T11:23:45.890Z,98983.52
2019-03-03T11:26:21.776Z,98977.38
2019-03-03T11:29:06.700Z,98971.23
2019-03-03T11:31:51.809Z,98970.34
2019-03-03T11:34:21.888Z,98958.48
2019-03-03T11:37:04.314Z,98939.58
2019-03-03T11:39:34.350Z,98926.83
2019-03-03T11:42:04.375Z,98925.93
2019-03-03T11:44:39.862Z,98930.76
2019-03-03T11:47:21.589Z,98924.59
2019-03-03T11:49:51.623Z,98957.03
2019-03-03T11:52:21.665Z,98962.71
2019-03-03T11:54:51.694Z,98953.06
2019-03-03T11:57:36.878Z,98957.91
2019-03-03T12:00:12.644Z,98953.95
2019-03-03T12:02:54.013Z,98947.33
2019-03-03T12:05:22.724Z,98940.32
2019-03-03T12:07:55.396Z,98940.31
2019-03-03T12:10:25.434Z,98938.98
2019-03-03T12:13:03.944Z,98938.09
2019-03-03T12:15:39.829Z,98936.34
2019-03-03T12:18:22.184Z,98933.73
2019-03-03T12:20:52.221Z,98926.30
2019-03-03T12:23:38.533Z,98931.15
2019-03-03T12:26:20.444Z,98929.84
2019-03-03T12:28:50.492Z,98931.59
2019-03-03T12:31:23.423Z,98932.48
2019-03-03T12:34:08.781Z,98922.34
2019-03-03T12:36:38.808Z,98913.55
2019-03-03T12:39:12.908Z,98919.25
2019-03-03T12:41:59.153Z,98912.25
2019-03-03T12:44:31.827Z,98909.19
2019-03-03T12:47:13.450Z,98905.65
2019-03-03T12:49:43.494Z,98888.54
2019-03-03T12:52:19.534Z,98896.45
2019-03-03T12:55:01.202Z,98892.05
2019-03-03T12:57:43.215Z,98885.88
2019-03-03T13:00:16.183Z,98883.16
2019-03-03T13:02:55.181Z,98880.91
2019-03-03T13:05:31.012Z,98879.48
2019-03-03T13:08:06.779Z,98872.40
2019-03-03T13:10:39.513Z,98860.08
2019-03-03T13:13:09.553Z,98863.09
2019-03-03T13:15:42.322Z,98858.14
2019-03-03T13:18:15.885Z,98848.47
2019-03-03T13:21:01.809Z,98847.08
2019-03-03T13:23:37.332Z,98832.05
2019-03-03T13:26:10.403Z,98820.66
2019-03-03T13:28:40.451Z,98818.46
2019-03-03T13:31:10.771Z,98811.05
2019-03-03T13:33:49.231Z,98810.61
2019-03-03T13:36:35.488Z,98803.13
2019-03-03T13:39:19.433Z,98808.39
2019-03-03T13:41:49.532Z,98800.00
2019-03-03T13:44:17.927Z,98808.37
2019-03-03T13:46:46.317Z,98803.55
2019-03-03T13:49:14.710Z,98808.80
2019-03-03T13:51:43.203Z,98802.63
2019-03-03T13:54:11.664Z,98796.50
2019-03-03T13:56:40.408Z,98798.25
2019-03-03T13:59:08.892Z,98792.49
2019-03-03T14:01:37.318Z,98794.23
2019-03-03T14:04:06.189Z,98792.91
2019-03-03T14:06:34.578Z,98796.37
2019-03-03T14:09:04.138Z,98793.69
2019-03-03T14:11:32.532Z,98785.78
2019-03-03T14:14:00.927Z,98778.69
2019-03-03T14:16:29.354Z,98771.17
2019-03-03T14:18:57.757Z,98763.63
2019-03-03T14:21:26.151Z,98771.49
2019-03-03T14:23:54.547Z,98768.75
2019-03-03T14:26:22.946Z,98770.94
2019-03-03T14:28:51.801Z,98764.69
2019-03-03T14:31:20.456Z,98763.27
2019-03-03T14:33:48.854Z,98763.23
2019-03-03T14:36:17.249Z,98765.77
2019-03-03T14:38:45.633Z,98755.69
2019-03-03T14:41:14.057Z,98750.77
2019-03-03T14:43:42.765Z,98743.30
2019-03-03T14:46:11.159Z,98745.39
2019-03-03T14:48:39.566Z,98738.83
2019-03-03T14:51:08.028Z,98733.55
2019-03-03T14:53:36.458Z,98731.36
2019-03-03T14:56:04.986Z,98723.40
2019-03-03T14:58:33.382Z,98713.70
2019-03-03T15:01:01.784Z,98706.17
2019-03-03T15:03:30.176Z,98699.17
2019-03-03T15:05:58.619Z,98695.22
2019-03-03T15:08:28.792Z,98693.80
2019-03-03T15:10:57.197Z,98698.30
2019-03-03T15:13:25.693Z,98685.23
2019-03-03T15:15:54.120Z,98696.20
2019-03-03T15:18:22.527Z,98681.33
2019-03-03T15:20:51.126Z,98679.15
2019-03-03T15:23:19.878Z,98675.24
2019-03-03T15:25:48.278Z,98675.66
2019-03-03T15:28:16.688Z,98673.10
2019-03-03T15:30:45.824Z,98676.23
2019-03-03T15:33:14.496Z,98661.73
2019-03-03T15:35:46.464Z,98667.50
2019-03-03T15:38:15.157Z,98666.66
2019-03-03T15:40:43.578Z,98666.73
2019-03-03T15:43:12.047Z,98679.91
2019-03-03T15:45:40.677Z,98668.52
2019-03-03T15:48:09.081Z,98664.14
2019-03-03T15:50:37.544Z,98674.25
2019-03-03T15:53:07.482Z,98665.92
2019-03-03T15:55:36.179Z,98656.75
2019-03-03T15:58:05.047Z,98658.48
2019-03-03T16:00:35.594Z,98659.38
2019-03-03T16:03:04.338Z,98659.89
2019-03-03T16:05:32.742Z,98646.23
2019-03-03T16:08:01.152Z,98660.72
2019-03-03T16:10:29.544Z,98653.67
2019-03-03T16:12:57.963Z,98653.69
2019-03-03T16:15:26.409Z,98652.83
2019-03-03T16:17:55.692Z,98651.95
2019-03-03T16:20:25.032Z,98645.80
2019-03-03T16:22:53.597Z,98635.22
2019-03-03T16:25:25.245Z,98635.64
2019-03-03T16:27:53.702Z,98630.84
2019-03-03T16:30:24.167Z,98620.30
2019-03-03T16:32:52.610Z,98613.19
2019-03-03T16:35:21.004Z,98616.24
2019-03-03T16:37:49.410Z,98612.28
2019-03-03T16:40:22.561Z,98607.45
2019-03-03T16:42:51.766Z,98599.91
2019-03-03T16:45:20.941Z,98589.40
2019-03-03T16:47:49.520Z,98593.33
2019-03-03T16:50:19.461Z,98578.29
2019-03-03T16:52:48.291Z,98576.11
2019-03-03T16:55:18.940Z,98572.59
2019-03-03T16:57:47.575Z,98569.47
2019-03-03T17:00:27.969Z,98551.44
2019-03-03T17:02:56.430Z,98554.08
2019-03-03T17:05:26.469Z,98554.54
2019-03-03T17:07:54.875Z,98569.84
2019-03-03T17:10:23.273Z,98562.80
2019-03-03T17:12:51.691Z,98558.33
2019-03-03T17:15:28.195Z,98563.61
2019-03-03T17:17:56.592Z,98553.54
2019-03-03T17:20:24.996Z,98543.38
2019-03-03T17:22:53.384Z,98537.19
2019-03-03T17:25:24.192Z,98530.61
2019-03-03T17:27:52.849Z,98523.14
2019-03-03T17:30:25.676Z,98533.62
2019-03-03T17:32:54.235Z,98541.62
2019-03-03T17:35:23.104Z,98531.89
2019-03-03T17:37:52.246Z,98529.66
2019-03-03T17:40:27.640Z,98524.88
2019-03-03T17:42:56.028Z,98527.52
2019-03-03T17:45:25.363Z,98527.47
2019-03-03T17:47:54.145Z,98530.08
2019-03-03T17:50:32.355Z,98532.75
2019-03-03T17:53:00.827Z,98523.92
2019-03-03T17:55:29.225Z,98527.95
2019-03-03T17:57:57.631Z,98515.32
2019-03-03T18:00:41.024Z,98519.91
2019-03-03T18:03:09.806Z,98517.44
2019-03-03T18:05:38.206Z,98529.05
2019-03-03T18:08:06.600Z,98523.95
2019-03-03T18:10:35.143Z,98527.52
2019-03-03T18:13:03.800Z,98520.20
2019-03-03T18:15:32.226Z,98525.09
2019-03-03T18:18:00.630Z,98519.00
2019-03-03T18:20:29.030Z,98512.55
2019-03-03T18:22:57.429Z,98514.84
2019-03-03T18:25:25.826Z,98511.42
2019-03-03T18:27:54.259Z,98513.64
2019-03-03T18:30:26.639Z,98507.13
2019-03-03T18:32:56.084Z,98497.48
2019-03-03T18:35:24.468Z,98499.36
2019-03-03T18:37:52.932Z,98481.38
2019-03-03T18:40:22.889Z,98476.52
2019-03-03T18:42:51.389Z,98462.93
2019-03-03T18:45:21.113Z,98456.84
2019-03-03T18:47:49.675Z,98457.77
2019-03-03T18:50:23.807Z,98455.58
2019-03-03T18:52:52.968Z,98465.23
2019-03-03T18:55:21.331Z,98463.11
2019-03-03T18:57:50.650Z,98466.19
2019-03-03T19:00:30.502Z,98471.45
2019-03-03T19:02:59.215Z,98468.89
2019-03-03T19:05:27.676Z,98456.59
2019-03-03T19:07:56.144Z,98456.97
2019-03-03T19:10:39.192Z,98462.30
2019-03-03T19:13:08.017Z,98457.88
2019-03-03T19:15:36.471Z,98450.89
2019-03-03T19:18:05.402Z,98443.91
2019-03-03T19:20:33.804Z,98438.22
2019-03-03T19:23:02.248Z,98446.57
2019-03-03T19:25:30.710Z,98450.16
2019-03-03T19:27:59.110Z,98451.11
2019-03-03T19:30:29.607Z,98454.22
2019-03-03T19:33:06.780Z,98452.04
2019-03-03T19:35:35.331Z,98452.00
2019-03-03T19:38:03.803Z,98445.82
2019-03-03T19:40:32.192Z,98437.42
2019-03-03T19:43:00.587Z,98440.92
2019-03-03T19:45:37.505Z,98436.55
2019-03-03T19:48:07.132Z,98426.86
2019-03-03T19:50:36.632Z,98426.42
2019-03-03T19:53:06.062Z,98423.35
2019-03-03T19:55:34.517Z,98411.02
2019-03-03T19:58:03.259Z,98418.92
2019-03-03T20:00:36.803Z,98431.15
2019-03-03T20:03:05.173Z,98424.95
2019-03-03T20:05:33.564Z,98426.68
2019-03-03T20:08:02.025Z,98414.83
2019-03-03T20:10:30.490Z,98391.05
2019-03-03T20:12:59.272Z,98399.81
2019-03-03T20:15:27.771Z,98390.14
2019-03-03T20:17:56.429Z,98383.52
2019-03-03T20:20:24.823Z,98383.08
2019-03-03T20:22:53.295Z,98372.90
2019-03-03T20:25:21.771Z,98355.62
2019-03-03T20:27:50.260Z,98357.72
2019-03-03T20:30:20.705Z,98358.55
2019-03-03T20:32:49.323Z,98354.60
2019-03-03T20:35:17.784Z,98348.42
2019-03-03T20:37:46.548Z,98351.55
2019-03-03T20:40:25.739Z,98338.40
2019-03-03T20:42:56.245Z,98333.55
2019-03-03T20:45:34.132Z,98321.22
2019-03-03T20:48:02.522Z,98322.48
2019-03-03T20:50:30.920Z,98316.32
2019-03-03T20:52:59.317Z,98304.83
2019-03-03T20:55:32.147Z,98303.02
2019-03-03T20:58:00.570Z,98302.06
2019-03-03T21:00:30.298Z,98311.67
2019-03-03T21:02:58.762Z,98315.17
2019-03-03T21:05:27.394Z,98310.31
2019-03-03T21:07:55.849Z,98304.16
2019-03-03T21:10:26.869Z,98303.31
2019-03-03T21:12:55.262Z,98279.54
2019-03-03T21:15:23.669Z,98264.11
2019-03-03T21:17:52.314Z,98246.44
2019-03-03T21:20:22.451Z,98246.39
2019-03-03T21:22:50.863Z,98262.19
2019-03-03T21:25:19.903Z,98263.94
2019-03-03T21:27:48.628Z,98252.52
2019-03-03T21:30:28.102Z,98245.84
2019-03-03T21:32:56.494Z,98248.47
2019-03-03T21:35:25.352Z,98233.51
2019-03-03T21:37:53.732Z,98227.73
2019-03-03T21:40:26.257Z,98223.31
2019-03-03T21:42:54.678Z,98208.72
2019-03-03T21:45:24.511Z,98206.00
2019-03-03T21:47:53.788Z,98203.30
2019-03-03T21:50:29.652Z,98203.27
2019-03-03T21:52:58.066Z,98196.62
2019-03-03T21:55:26.455Z,98186.95
2019-03-03T21:57:54.914Z,98182.52
2019-03-03T22:00:28.444Z,98176.77
2019-03-03T22:02:58.730Z,98174.92
2019-03-03T22:05:27.117Z,98166.98
2019-03-03T22:07:55.516Z,98159.91
2019-03-03T22:10:25.616Z,98157.68
2019-03-03T22:12:54.154Z,98147.91
2019-03-03T22:15:23.793Z,98162.86
2019-03-03T22:17:52.282Z,98147.03
2019-03-03T22:20:20.740Z,98133.30
2019-03-03T22:22:49.146Z,98134.49
2019-03-03T22:25:18.462Z,98129.59
2019-03-03T22:27:46.849Z,98128.30
2019-03-03T22:30:19.555Z,98114.70
2019-03-03T22:32:48.018Z,98093.08
2019-03-03T22:35:16.411Z,98090.85
2019-03-03T22:37:44.788Z,98093.89
2019-03-03T22:40:18.582Z,98098.66
2019-03-03T22:42:47.046Z,98089.87
2019-03-03T22:45:16.796Z,98078.91
2019-03-03T22:47:45.188Z,98067.94
2019-03-03T22:50:18.356Z,98060.50
2019-03-03T22:52:46.746Z,98064.46
2019-03-03T22:55:19.841Z,98060.09
2019-03-03T22:57:48.300Z,98050.05
2019-03-03T23:00:48.059Z,98060.61
2019-03-03T23:03:22.506Z,98052.72
2019-03-03T23:05:59.727Z,98045.62
2019-03-03T23:08:31.168Z,98049.10
2019-03-03T23:11:25.397Z,98041.15
2019-03-03T23:13:59.531Z,98027.52
2019-03-03T23:17:07.575Z,98023.56
2019-03-03T23:19:44.509Z,98027.11
2019-03-03T23:22:35.314Z,98027.05
2019-03-03T23:25:15.544Z,98029.17
2019-03-03T23:27:43.940Z,98039.28
2019-03-03T23:30:12.603Z,98044.30
2019-03-03T23:32:40.991Z,98048.94
2019-03-03T23:35:09.835Z,98061.86
2019-03-03T23:37:38.230Z,98060.38
2019-03-03T23:40:07.465Z,98079.19
2019-03-03T23:42:35.884Z,98074.73
2019-03-03T23:45:06.931Z,98082.09
2019-03-03T23:47:35.315Z,98083.81
2019-03-03T23:50:04.385Z,98090.33
2019-03-03T23:52:32.800Z,98088.77
2019-03-03T23:55:01.439Z,98090.75
2019-03-03T23:57:29.829Z,98087.40
2019-03-03T23:59:58.228Z,98081.46
